首页
METAR-TAF:

METAR-TAF

机场 :

滑鐵盧區國際機場

滑铁卢, 安大略省, 加拿大

纬度: 43-28N, 经度: 080-23W, 海拔: 317米

当前天气观测

该预报发布于21分钟前的20:00 UTC
风速13节,风向西转西北,有时为22节阵风
温度 13°C
湿度 30%
气压 1015 hPa
能見度: 14.5公里
天空无云

METAR: CYKF 022000Z AUTO 30013G22KT 9SM CLR 13/M04 A2997 RMK SLP157

时间: 16:21 (20:21 UTC)

预报

该预报发布于43分钟前的19:38 UTC
预报有效从02日的 20点(UTC)到 03日的 08点(UTC)
风速10节,风向西北,有时为20节阵风
能見度: 10公里
天空无云
成为
从 02日的 22点(UTC)到 02日的 24点(UTC)
风速15节,风向西北
成为
从 03日的 04点(UTC)到 03日的 06点(UTC)
风速8节,风向北转西北

TAF: CYKF 021938Z 0220/0308 31010G20KT P6SM SKC BECMG 0222/0224 31015KT BECMG 0304/0306 34008KT RMK FCST BASED ON AUTO OBS. NXT FCST BY 030200Z

超过4000个机场的气象观测和天气预报(METAR&TAF报告)。

可查询的气象台以黄色和红色小点在地图上表示。

将鼠标移到小点上方,可查看气象台名称。

然后点击查看天气观测和预报。

如需切换地图:点击带黑十字的绿色按钮放大地图;点击带横线的绿色按钮缩小地图;或者点击绿色箭头查看邻近地区的地图。


METAR-TAF: